LIBRLICR

Guest
Details From LIBR - BRINDISI/Casale
To LICR - Reggio Calabria
Flight Number -
Tags decoded
Created
Modified
Stats Distance 205 nm / 380 km
Max Altitude 0 ft / 0 m
Waypoints 4
Social Downloads 1
Likes 0
Share VATSIM

Download

Looking for another format? Having issues loading an existing format? Contact us
Advertisement - Login to hide

Notes

Requested: LIBR CRN LONDA LICR

Route

LIBR CRN LONDA LICR

ID Type Via Altitude Latitude Longitude Leg Dist Tot Dist Heading (true) Name
O LIBR APT - 0 ft / 0 m 40.66082˚ 17.94267˚ - 0 nm - BRINDISI/Casale
CRN VOR - 0 ft / 0 m 38.99611˚ 17.08305˚ 107 nm 107 nm 202° / 201° CROTONE VOR-DME
LONDA FIX - 0 ft / 0 m 38.27722˚ 15.54389˚ 84 nm 191 nm 240° / 239° -
O LICR APT - 0 ft / 0 m 38.07257˚ 15.64932˚ 13 nm 204 nm 158° / 158° Reggio Calabria

Altitude Profile

Advertisement - Login to hide

Weather


0- 5 10 15 20 25 30 35+ Temperature / ° C

Clouds and Precipitation
Forecast for 2018-05-27 12:00 UTC. Updated 5 hours ago

Ground ~20,000 ft ~40,000 ft Winds

LIBR

Details ICAO LIBR (BDS)
Name BRINDISI/Casale
Region Italy
Timezone Europe/Rome (UTC+2.0)
Stats Elevation 47 ft / 14 m (AMSL)
Location 40.660824° 17.942673°
Runways 2
Magnetic Variation 3.935° E

METAR

LIBR 271620Z 31010KT CAVOK 23/21 Q1016

Decode

TAF

TAF LIBR 271100Z 2712/2812 33012KT CAVOK

Decode

Departure Runways

ID Width Length Bearing (true) Bearing (mag) Surface Threshold Offset Overrun Length
13 148 ft / 45 m 9,398 ft / 2,865 m 136.56° 132.62° Asphalt 0 ft / 0 m 689 ft / 210 m
23 148 ft / 45 m 6,129 ft / 1,868 m 232.52° 228.58° Asphalt 230 ft / 70 m 0 ft / 0 m
31 148 ft / 45 m 9,398 ft / 2,865 m 316.58° 312.64° Asphalt 0 ft / 0 m 387 ft / 118 m
5 148 ft / 45 m 6,129 ft / 1,868 m 52.51° 48.57° Asphalt 0 ft / 0 m 0 ft / 0 m

LICR

Details ICAO LICR (REG)
Name Reggio Calabria
Region Italy
Timezone Europe/Rome (UTC+2.0)
Stats Elevation 96 ft / 29 m (AMSL)
Location 38.072573° 15.649317°
Runways 2
Magnetic Variation 3.389° E

METAR

LICR 271550Z 21008KT CAVOK 23/20 Q1017

Decode

TAF

TAF LICR 271100Z 2712/2812 18012KT 9999 FEW030 BECMG 2716/2718 VRB05KT

Decode

Destination Runways

ID Width Length Bearing (true) Bearing (mag) Surface Threshold Offset Overrun Length
11 148 ft / 45 m 6,123 ft / 1,866 m 111.76° 108.37° Asphalt 203 ft / 62 m 0 ft / 0 m
15 148 ft / 45 m 6,640 ft / 2,024 m 151.90° 148.51° Asphalt 784 ft / 239 m 0 ft / 0 m
29 148 ft / 45 m 6,123 ft / 1,866 m 291.77° 288.38° Asphalt 157 ft / 48 m 0 ft / 0 m
33 148 ft / 45 m 6,640 ft / 2,024 m 331.90° 328.51° Asphalt 659 ft / 201 m 0 ft / 0 m

Approach Navaids

Runway Type Ident Frequency Range Bearing (true) Bearing (mag) Slope Elevation
33 Localiser REG 109.30 MHz 18 nm / 33 km 19.16° 15.78° - 95 ft / 29 m (AMSL)

Popular Alternatives